NOO71D EGNX-EBLG
Flight info
| Callsign | NOO71D |
|---|---|
| Flight time | 0h 55m |
| Altitude | 23000 |
| Route | SAPCO Y53 DTY M605 SILVA/N0472F290 UM605 BENSU Q70 VABIK/N0428F230 Q70 KOK |
| Aircraft | B752/M-SDE3FGHIM3RWXY/LB1 |
Departure
| Time | 2026-04-21 17:53 |
|---|---|
| Airport | East Midlands Airport (EGNX) |
Arrival
| Time | 2026-04-21 18:48 |
|---|---|
| Airport | Liège Airport (EBLG) |
| Time | Latitude | Longitude | Altitude | Speed | Heading |
|---|---|---|---|---|---|
| 2026-04-21 17:11 | 52.82831 | -1.32227 | 287 ft | 0 kts | 217° |
| 2026-04-21 17:33 | 52.82832 | -1.32225 | 286 ft | 1 kts | 217° |
| 2026-04-21 17:33 | 52.82844 | -1.32211 | 286 ft | 2 kts | 216° |
| 2026-04-21 17:34 | 52.82856 | -1.32195 | 286 ft | 2 kts | 227° |
| 2026-04-21 17:34 | 52.82865 | -1.32176 | 286 ft | 2 kts | 237° |
| 2026-04-21 17:34 | 52.82872 | -1.32155 | 286 ft | 2 kts | 248° |
| 2026-04-21 17:34 | 52.82877 | -1.32131 | 286 ft | 2 kts | 258° |
| 2026-04-21 17:35 | 52.82879 | -1.32107 | 285 ft | 2 kts | 269° |
| 2026-04-21 17:35 | 52.82879 | -1.32083 | 285 ft | 2 kts | 270° |
| 2026-04-21 17:35 | 52.82879 | -1.32058 | 284 ft | 2 kts | 269° |
| 2026-04-21 17:35 | 52.82879 | -1.32051 | 284 ft | 0 kts | 270° |
| 2026-04-21 17:39 | 52.82879 | -1.32064 | 284 ft | 2 kts | 270° |
| 2026-04-21 17:40 | 52.82879 | -1.32100 | 285 ft | 3 kts | 270° |
| 2026-04-21 17:40 | 52.82881 | -1.32138 | 286 ft | 2 kts | 294° |
| 2026-04-21 17:40 | 52.82890 | -1.32153 | 287 ft | 1 kts | 327° |
| 2026-04-21 17:40 | 52.82919 | -1.32172 | 288 ft | 6 kts | 332° |
| 2026-04-21 17:41 | 52.82940 | -1.32223 | 289 ft | 5 kts | 280° |
| 2026-04-21 17:41 | 52.82941 | -1.32292 | 289 ft | 6 kts | 267° |
| 2026-04-21 17:41 | 52.82939 | -1.32357 | 291 ft | 5 kts | 268° |
| 2026-04-21 17:41 | 52.82937 | -1.32454 | 292 ft | 11 kts | 269° |
| 2026-04-21 17:42 | 52.82935 | -1.32632 | 293 ft | 19 kts | 269° |
| 2026-04-21 17:42 | 52.82930 | -1.32857 | 295 ft | 19 kts | 268° |
| 2026-04-21 17:42 | 52.82927 | -1.33079 | 298 ft | 17 kts | 269° |
| 2026-04-21 17:42 | 52.82923 | -1.33269 | 302 ft | 15 kts | 268° |
| 2026-04-21 17:43 | 52.82920 | -1.33427 | 305 ft | 12 kts | 269° |
| 2026-04-21 17:43 | 52.82918 | -1.33557 | 306 ft | 10 kts | 268° |
| 2026-04-21 17:43 | 52.82914 | -1.33722 | 306 ft | 18 kts | 268° |
| 2026-04-21 17:43 | 52.82909 | -1.33968 | 306 ft | 22 kts | 269° |
| 2026-04-21 17:44 | 52.82907 | -1.34224 | 307 ft | 21 kts | 269° |
| 2026-04-21 17:44 | 52.82908 | -1.34452 | 309 ft | 16 kts | 269° |
| 2026-04-21 17:44 | 52.82905 | -1.34586 | 311 ft | 5 kts | 269° |
| 2026-04-21 17:44 | 52.82908 | -1.34636 | 312 ft | 3 kts | 292° |
| 2026-04-21 17:45 | 52.82920 | -1.34657 | 313 ft | 1 kts | 343° |
| 2026-04-21 17:45 | 52.82936 | -1.34662 | 313 ft | 2 kts | 352° |
| 2026-04-21 17:45 | 52.82948 | -1.34663 | 313 ft | 0 kts | 358° |
| 2026-04-21 17:51 | 52.82955 | -1.34664 | 314 ft | 2 kts | 358° |
| 2026-04-21 17:51 | 52.82974 | -1.34665 | 314 ft | 3 kts | 359° |
| 2026-04-21 17:51 | 52.83000 | -1.34665 | 314 ft | 4 kts | 359° |
| 2026-04-21 17:51 | 52.83049 | -1.34661 | 314 ft | 4 kts | 29° |
| 2026-04-21 17:52 | 52.83066 | -1.34607 | 313 ft | 2 kts | 83° |
| 2026-04-21 17:52 | 52.83067 | -1.34593 | 313 ft | 0 kts | 86° |
| 2026-04-21 17:52 | 52.83071 | -1.34457 | 313 ft | 39 kts | 88° |
| 2026-04-21 17:52 | 52.83086 | -1.33623 | 310 ft | 105 kts | 88° |
| 2026-04-21 17:53 | 52.83114 | -1.32110 | 387 ft | 153 kts | 86° |
| 2026-04-21 17:53 | 52.83132 | -1.30318 | 1104 ft | 159 kts | 91° |
| 2026-04-21 17:53 | 52.82998 | -1.28679 | 2172 ft | 142 kts | 94° |
| 2026-04-21 17:53 | 52.82899 | -1.26970 | 2609 ft | 161 kts | 91° |
| 2026-04-21 17:54 | 52.82751 | -1.25062 | 3148 ft | 178 kts | 104° |
| 2026-04-21 17:54 | 52.82084 | -1.23217 | 3704 ft | 198 kts | 121° |
| 2026-04-21 17:54 | 52.81236 | -1.21418 | 4460 ft | 203 kts | 123° |
| 2026-04-21 17:54 | 52.80310 | -1.19563 | 4965 ft | 223 kts | 126° |
| 2026-04-21 17:55 | 52.79166 | -1.17737 | 5647 ft | 239 kts | 143° |
| 2026-04-21 17:55 | 52.77497 | -1.16861 | 6152 ft | 270 kts | 174° |
| 2026-04-21 17:55 | 52.75621 | -1.17436 | 7001 ft | 283 kts | 195° |
| 2026-04-21 17:55 | 52.73817 | -1.18687 | 7857 ft | 289 kts | 202° |
| 2026-04-21 17:56 | 52.72051 | -1.20314 | 8687 ft | 294 kts | 208° |
| 2026-04-21 17:56 | 52.70309 | -1.22178 | 9015 ft | 307 kts | 211° |
| 2026-04-21 17:56 | 52.68578 | -1.24218 | 8985 ft | 299 kts | 213° |
| 2026-04-21 17:56 | 52.66929 | -1.26247 | 8998 ft | 295 kts | 213° |
| 2026-04-21 17:57 | 52.65310 | -1.28282 | 8981 ft | 297 kts | 214° |
| 2026-04-21 17:57 | 52.63678 | -1.30365 | 8962 ft | 296 kts | 214° |
| 2026-04-21 17:57 | 52.62052 | -1.32454 | 9003 ft | 296 kts | 214° |
| 2026-04-21 17:57 | 52.60401 | -1.34512 | 9399 ft | 303 kts | 207° |
| 2026-04-21 17:58 | 52.58508 | -1.35660 | 10332 ft | 291 kts | 184° |
| 2026-04-21 17:58 | 52.56432 | -1.35652 | 10657 ft | 305 kts | 168° |
| 2026-04-21 17:58 | 52.54323 | -1.34864 | 11051 ft | 321 kts | 161° |
| 2026-04-21 17:58 | 52.52125 | -1.33786 | 11344 ft | 340 kts | 159° |
| 2026-04-21 17:59 | 52.49841 | -1.32491 | 11626 ft | 357 kts | 157° |
| 2026-04-21 17:59 | 52.47507 | -1.31058 | 12300 ft | 361 kts | 156° |
| 2026-04-21 17:59 | 52.45158 | -1.29553 | 12962 ft | 366 kts | 156° |
| 2026-04-21 17:59 | 52.42782 | -1.27994 | 13653 ft | 369 kts | 156° |
| 2026-04-21 18:00 | 52.40414 | -1.26420 | 14341 ft | 372 kts | 156° |
| 2026-04-21 18:00 | 52.37996 | -1.24801 | 14961 ft | 377 kts | 156° |
| 2026-04-21 18:00 | 52.35577 | -1.23177 | 15609 ft | 381 kts | 156° |
| 2026-04-21 18:00 | 52.33116 | -1.21521 | 16224 ft | 385 kts | 156° |
| 2026-04-21 18:01 | 52.30624 | -1.19846 | 16798 ft | 390 kts | 156° |
| 2026-04-21 18:01 | 52.28141 | -1.18176 | 17406 ft | 393 kts | 156° |
| 2026-04-21 18:01 | 52.25597 | -1.16468 | 17995 ft | 397 kts | 156° |
| 2026-04-21 18:01 | 52.23031 | -1.14745 | 18520 ft | 402 kts | 156° |
| 2026-04-21 18:02 | 52.20425 | -1.12998 | 19000 ft | 408 kts | 156° |
| 2026-04-21 18:02 | 52.17740 | -1.11433 | 19400 ft | 415 kts | 165° |
| 2026-04-21 18:02 | 52.14934 | -1.10442 | 19858 ft | 420 kts | 168° |
| 2026-04-21 18:02 | 52.12067 | -1.09467 | 20259 ft | 426 kts | 168° |
| 2026-04-21 18:03 | 52.09131 | -1.08490 | 20647 ft | 433 kts | 169° |
| 2026-04-21 18:03 | 52.06198 | -1.07520 | 21058 ft | 437 kts | 169° |
| 2026-04-21 18:03 | 52.03168 | -1.06526 | 21378 ft | 445 kts | 170° |
| 2026-04-21 18:03 | 52.00142 | -1.05537 | 21770 ft | 450 kts | 171° |
| 2026-04-21 18:04 | 51.97047 | -1.04529 | 22141 ft | 456 kts | 171° |
| 2026-04-21 18:04 | 51.93933 | -1.03516 | 22481 ft | 461 kts | 171° |
| 2026-04-21 18:04 | 51.90791 | -1.02497 | 22856 ft | 466 kts | 172° |
| 2026-04-21 18:04 | 51.87575 | -1.01454 | 23187 ft | 472 kts | 172° |
| 2026-04-21 18:05 | 51.84380 | -1.00421 | 23572 ft | 475 kts | 172° |
| 2026-04-21 18:05 | 51.81142 | -0.99375 | 23835 ft | 482 kts | 172° |
| 2026-04-21 18:05 | 51.77864 | -0.98316 | 24394 ft | 482 kts | 172° |
| 2026-04-21 18:05 | 51.74529 | -0.97242 | 24818 ft | 486 kts | 172° |
| 2026-04-21 18:06 | 51.71228 | -0.96181 | 25266 ft | 490 kts | 172° |
| 2026-04-21 18:06 | 51.67911 | -0.94985 | 25755 ft | 494 kts | 167° |
| 2026-04-21 18:06 | 51.64689 | -0.93050 | 26244 ft | 500 kts | 157° |
| 2026-04-21 18:06 | 51.61616 | -0.90309 | 26552 ft | 508 kts | 147° |
| 2026-04-21 18:07 | 51.58833 | -0.86833 | 27093 ft | 509 kts | 137° |
| 2026-04-21 18:07 | 51.56393 | -0.82714 | 27616 ft | 509 kts | 128° |
| 2026-04-21 18:07 | 51.54391 | -0.78118 | 28170 ft | 507 kts | 118° |
| 2026-04-21 18:07 | 51.52840 | -0.73093 | 28741 ft | 502 kts | 109° |
| 2026-04-21 18:08 | 51.51607 | -0.67909 | 29257 ft | 500 kts | 108° |
| 2026-04-21 18:08 | 51.50319 | -0.62660 | 29270 ft | 504 kts | 109° |
| 2026-04-21 18:08 | 51.47702 | -0.52334 | 29275 ft | 499 kts | 109° |
| 2026-04-21 18:09 | 51.45072 | -0.42141 | 29284 ft | 500 kts | 109° |
| 2026-04-21 18:09 | 51.42403 | -0.31889 | 29262 ft | 500 kts | 110° |
| 2026-04-21 18:10 | 51.39726 | -0.21667 | 29271 ft | 500 kts | 110° |
| 2026-04-21 18:10 | 51.37029 | -0.11416 | 29265 ft | 501 kts | 110° |
| 2026-04-21 18:11 | 51.34343 | -0.01183 | 29266 ft | 503 kts | 107° |
| 2026-04-21 18:11 | 51.32870 | 0.09586 | 29284 ft | 491 kts | 89° |
| 2026-04-21 18:12 | 51.32331 | 0.20361 | 29275 ft | 488 kts | 89° |
| 2026-04-21 18:12 | 51.31808 | 0.31089 | 29268 ft | 488 kts | 89° |
| 2026-04-21 18:13 | 51.31282 | 0.41885 | 29270 ft | 487 kts | 89° |
| 2026-04-21 18:13 | 51.30753 | 0.52646 | 29262 ft | 486 kts | 89° |
| 2026-04-21 18:14 | 51.30077 | 0.68785 | 29257 ft | 486 kts | 88° |
| 2026-04-21 18:15 | 51.29691 | 0.79443 | 29262 ft | 483 kts | 88° |
| 2026-04-21 18:15 | 51.29295 | 0.90178 | 29260 ft | 485 kts | 88° |
| 2026-04-21 18:16 | 51.28887 | 1.00851 | 29254 ft | 482 kts | 88° |
| 2026-04-21 18:16 | 51.28474 | 1.11455 | 29259 ft | 480 kts | 88° |
| 2026-04-21 18:17 | 51.28049 | 1.22137 | 29259 ft | 483 kts | 88° |
| 2026-04-21 18:17 | 51.27615 | 1.32750 | 29254 ft | 481 kts | 88° |
| 2026-04-21 18:18 | 51.27175 | 1.43313 | 29256 ft | 479 kts | 88° |
| 2026-04-21 18:18 | 51.26722 | 1.53916 | 29255 ft | 478 kts | 88° |
| 2026-04-21 18:19 | 51.26265 | 1.64450 | 29256 ft | 481 kts | 88° |
| 2026-04-21 18:19 | 51.25795 | 1.75015 | 29249 ft | 478 kts | 89° |
| 2026-04-21 18:20 | 51.25317 | 1.85554 | 29242 ft | 479 kts | 89° |
| 2026-04-21 18:20 | 51.24828 | 1.96113 | 29239 ft | 477 kts | 88° |
| 2026-04-21 18:21 | 51.24330 | 2.06666 | 29230 ft | 475 kts | 88° |
| 2026-04-21 18:21 | 51.23830 | 2.17135 | 29235 ft | 473 kts | 89° |
| 2026-04-21 18:22 | 51.23322 | 2.27574 | 29233 ft | 474 kts | 89° |
| 2026-04-21 18:22 | 51.22115 | 2.37846 | 29254 ft | 480 kts | 105° |
| 2026-04-21 18:23 | 51.18951 | 2.47148 | 29261 ft | 486 kts | 125° |
| 2026-04-21 18:23 | 51.14617 | 2.55502 | 29252 ft | 492 kts | 127° |
| 2026-04-21 18:24 | 51.10608 | 2.64174 | 29266 ft | 484 kts | 114° |
| 2026-04-21 18:24 | 51.08319 | 2.74064 | 29256 ft | 474 kts | 101° |
| 2026-04-21 18:25 | 51.06676 | 2.84084 | 29255 ft | 471 kts | 100° |
| 2026-04-21 18:25 | 51.05106 | 2.94099 | 29248 ft | 471 kts | 100° |
| 2026-04-21 18:26 | 51.03545 | 3.04180 | 29249 ft | 470 kts | 100° |
| 2026-04-21 18:26 | 51.01984 | 3.14260 | 29246 ft | 471 kts | 100° |
| 2026-04-21 18:27 | 51.00428 | 3.24264 | 29244 ft | 468 kts | 100° |
| 2026-04-21 18:27 | 50.98872 | 3.34216 | 29232 ft | 463 kts | 100° |
| 2026-04-21 18:28 | 50.97308 | 3.44175 | 28782 ft | 469 kts | 100° |
| 2026-04-21 18:28 | 50.96521 | 3.49148 | 28379 ft | 461 kts | 100° |
| 2026-04-21 18:28 | 50.95796 | 3.53981 | 27948 ft | 453 kts | 99° |
| 2026-04-21 18:28 | 50.95078 | 3.58838 | 27429 ft | 448 kts | 99° |
| 2026-04-21 18:29 | 50.94372 | 3.63576 | 26919 ft | 440 kts | 99° |
| 2026-04-21 18:29 | 50.93681 | 3.68203 | 26419 ft | 433 kts | 100° |
| 2026-04-21 18:29 | 50.92993 | 3.72796 | 25917 ft | 429 kts | 100° |
| 2026-04-21 18:29 | 50.92307 | 3.77371 | 25435 ft | 425 kts | 101° |
| 2026-04-21 18:30 | 50.91630 | 3.81864 | 24947 ft | 419 kts | 101° |
| 2026-04-21 18:30 | 50.90958 | 3.86310 | 24448 ft | 413 kts | 101° |
| 2026-04-21 18:30 | 50.90301 | 3.90646 | 23977 ft | 408 kts | 101° |
| 2026-04-21 18:30 | 50.89643 | 3.94976 | 23475 ft | 402 kts | 101° |
| 2026-04-21 18:31 | 50.88987 | 3.99268 | 22982 ft | 399 kts | 102° |
| 2026-04-21 18:31 | 50.88115 | 4.03426 | 22257 ft | 401 kts | 111° |
| 2026-04-21 18:31 | 50.86795 | 4.07205 | 21423 ft | 389 kts | 120° |
| 2026-04-21 18:31 | 50.85355 | 4.10775 | 20663 ft | 388 kts | 117° |
| 2026-04-21 18:32 | 50.84020 | 4.14422 | 19905 ft | 386 kts | 116° |
| 2026-04-21 18:32 | 50.82727 | 4.18089 | 19112 ft | 377 kts | 115° |
| 2026-04-21 18:32 | 50.81495 | 4.21679 | 18363 ft | 371 kts | 115° |
| 2026-04-21 18:32 | 50.80293 | 4.25236 | 17652 ft | 368 kts | 115° |
| 2026-04-21 18:33 | 50.79108 | 4.28775 | 16908 ft | 364 kts | 114° |
| 2026-04-21 18:33 | 50.77939 | 4.32275 | 16176 ft | 358 kts | 114° |
| 2026-04-21 18:33 | 50.76791 | 4.35727 | 15473 ft | 354 kts | 114° |
| 2026-04-21 18:33 | 50.75657 | 4.39134 | 14819 ft | 351 kts | 114° |
| 2026-04-21 18:34 | 50.74540 | 4.42490 | 14132 ft | 347 kts | 114° |
| 2026-04-21 18:34 | 50.73436 | 4.45805 | 13498 ft | 342 kts | 114° |
| 2026-04-21 18:34 | 50.72333 | 4.49111 | 12870 ft | 339 kts | 114° |
| 2026-04-21 18:34 | 50.71246 | 4.52367 | 12214 ft | 335 kts | 114° |
| 2026-04-21 18:35 | 50.70531 | 4.54508 | 11795 ft | 332 kts | 114° |
| 2026-04-21 18:35 | 50.69106 | 4.58770 | 10951 ft | 329 kts | 114° |
| 2026-04-21 18:35 | 50.68052 | 4.61914 | 10340 ft | 324 kts | 114° |
| 2026-04-21 18:35 | 50.67046 | 4.64904 | 10173 ft | 292 kts | 114° |
| 2026-04-21 18:36 | 50.66138 | 4.67601 | 10039 ft | 265 kts | 114° |
| 2026-04-21 18:36 | 50.65310 | 4.70065 | 9671 ft | 254 kts | 114° |
| 2026-04-21 18:36 | 50.64478 | 4.72555 | 8793 ft | 260 kts | 115° |
| 2026-04-21 18:36 | 50.63650 | 4.75012 | 8200 ft | 255 kts | 115° |
| 2026-04-21 18:37 | 50.62823 | 4.77468 | 7652 ft | 249 kts | 115° |
| 2026-04-21 18:37 | 50.62040 | 4.79782 | 7473 ft | 230 kts | 115° |
| 2026-04-21 18:37 | 50.61311 | 4.81939 | 7281 ft | 221 kts | 115° |
| 2026-04-21 18:37 | 50.60600 | 4.84047 | 7046 ft | 218 kts | 115° |
| 2026-04-21 18:38 | 50.59894 | 4.86139 | 6732 ft | 219 kts | 115° |
| 2026-04-21 18:38 | 50.59184 | 4.88237 | 6455 ft | 217 kts | 115° |
| 2026-04-21 18:38 | 50.58477 | 4.90323 | 6170 ft | 216 kts | 115° |
| 2026-04-21 18:38 | 50.57769 | 4.92412 | 5904 ft | 215 kts | 115° |
| 2026-04-21 18:39 | 50.57073 | 4.94462 | 5637 ft | 214 kts | 115° |
| 2026-04-21 18:39 | 50.56368 | 4.96539 | 5369 ft | 212 kts | 114° |
| 2026-04-21 18:39 | 50.55680 | 4.98559 | 5091 ft | 212 kts | 114° |
| 2026-04-21 18:39 | 50.54995 | 5.00570 | 4982 ft | 201 kts | 114° |
| 2026-04-21 18:40 | 50.54358 | 5.02434 | 4928 ft | 190 kts | 114° |
| 2026-04-21 18:40 | 50.53737 | 5.04261 | 4649 ft | 189 kts | 114° |
| 2026-04-21 18:40 | 50.53328 | 5.05462 | 4487 ft | 188 kts | 114° |
| 2026-04-21 18:40 | 50.52511 | 5.07860 | 4129 ft | 187 kts | 114° |
| 2026-04-21 18:41 | 50.51893 | 5.09669 | 3844 ft | 187 kts | 113° |
| 2026-04-21 18:41 | 50.51288 | 5.11440 | 3597 ft | 185 kts | 113° |
| 2026-04-21 18:41 | 50.50682 | 5.13212 | 3336 ft | 185 kts | 113° |
| 2026-04-21 18:41 | 50.50077 | 5.14983 | 3080 ft | 184 kts | 113° |
| 2026-04-21 18:42 | 50.49484 | 5.16710 | 2974 ft | 174 kts | 113° |
| 2026-04-21 18:42 | 50.48918 | 5.18398 | 2993 ft | 180 kts | 108° |
| 2026-04-21 18:42 | 50.48826 | 5.20314 | 3006 ft | 178 kts | 70° |
| 2026-04-21 18:42 | 50.49540 | 5.21901 | 3014 ft | 181 kts | 47° |
| 2026-04-21 18:43 | 50.50423 | 5.23301 | 2988 ft | 180 kts | 49° |
| 2026-04-21 18:43 | 50.51282 | 5.24702 | 2967 ft | 176 kts | 48° |
| 2026-04-21 18:43 | 50.52100 | 5.26005 | 3014 ft | 158 kts | 48° |
| 2026-04-21 18:43 | 50.52856 | 5.27210 | 2999 ft | 154 kts | 48° |
| 2026-04-21 18:44 | 50.53576 | 5.28348 | 2986 ft | 136 kts | 48° |
| 2026-04-21 18:44 | 50.54221 | 5.29366 | 2965 ft | 126 kts | 49° |
| 2026-04-21 18:44 | 50.54826 | 5.30324 | 2880 ft | 127 kts | 49° |
| 2026-04-21 18:44 | 50.55446 | 5.31306 | 2708 ft | 124 kts | 48° |
| 2026-04-21 18:45 | 50.56054 | 5.32266 | 2550 ft | 123 kts | 48° |
| 2026-04-21 18:45 | 50.56661 | 5.33223 | 2394 ft | 124 kts | 47° |
| 2026-04-21 18:45 | 50.57272 | 5.34189 | 2216 ft | 124 kts | 47° |
| 2026-04-21 18:45 | 50.57881 | 5.35151 | 2051 ft | 124 kts | 47° |
| 2026-04-21 18:46 | 50.58492 | 5.36115 | 1885 ft | 124 kts | 46° |
| 2026-04-21 18:46 | 50.59103 | 5.37078 | 1720 ft | 124 kts | 46° |
| 2026-04-21 18:46 | 50.59711 | 5.38038 | 1555 ft | 124 kts | 46° |
| 2026-04-21 18:46 | 50.60345 | 5.38979 | 1400 ft | 127 kts | 45° |
| 2026-04-21 18:47 | 50.60971 | 5.39971 | 1222 ft | 127 kts | 47° |
| 2026-04-21 18:47 | 50.61576 | 5.40967 | 1028 ft | 126 kts | 45° |
| 2026-04-21 18:47 | 50.62190 | 5.41945 | 853 ft | 127 kts | 45° |
| 2026-04-21 18:47 | 50.62825 | 5.42960 | 706 ft | 131 kts | 45° |
| 2026-04-21 18:48 | 50.63454 | 5.43952 | 613 ft | 118 kts | 45° |
| 2026-04-21 18:48 | 50.63893 | 5.44654 | 594 ft | 64 kts | 45° |
| 2026-04-21 18:48 | 50.64119 | 5.45012 | 590 ft | 37 kts | 45° |
| 2026-04-21 18:48 | 50.64298 | 5.45294 | 588 ft | 35 kts | 45° |
| 2026-04-21 18:49 | 50.64390 | 5.45509 | 592 ft | 15 kts | 96° |
| 2026-04-21 18:49 | 50.64388 | 5.45650 | 595 ft | 9 kts | 90° |
| 2026-04-21 18:49 | 50.64380 | 5.45695 | 597 ft | 4 kts | 126° |
| 2026-04-21 18:49 | 50.64316 | 5.45692 | 598 ft | 14 kts | 223° |
| 2026-04-21 18:50 | 50.64243 | 5.45573 | 598 ft | 9 kts | 220° |
| 2026-04-21 18:50 | 50.64212 | 5.45586 | 599 ft | 4 kts | 133° |
| 2026-04-21 18:50 | 50.64189 | 5.45624 | 601 ft | 4 kts | 134° |
| 2026-04-21 18:50 | 50.64182 | 5.45636 | 602 ft | 0 kts | 135° |